createdAt,value
2019-05-22T00:01:32.196Z,62.60
2019-05-22T00:04:14.439Z,62.30
2019-05-22T00:06:50.938Z,62.40
2019-05-22T00:09:30.225Z,62.60
2019-05-22T00:12:00.936Z,62.50
2019-05-22T00:14:36.682Z,62.60
2019-05-22T00:17:10.294Z,62.50
2019-05-22T00:19:41.122Z,62.60
2019-05-22T00:22:22.459Z,62.50
2019-05-22T00:24:54.561Z,62.80
2019-05-22T00:27:26.483Z,62.70
2019-05-22T00:29:57.483Z,62.60
2019-05-22T00:32:27.440Z,62.50
2019-05-22T00:34:58.319Z,62.50
2019-05-22T00:37:29.148Z,62.60
2019-05-22T00:40:00.254Z,63.00
2019-05-22T00:42:32.378Z,63.40
2019-05-22T00:45:02.508Z,63.60
2019-05-22T00:47:34.351Z,63.40
2019-05-22T00:50:08.548Z,63.00
2019-05-22T00:52:48.680Z,62.90
2019-05-22T00:55:52.339Z,63.00
2019-05-22T00:58:31.052Z,62.90
2019-05-22T01:01:12.759Z,62.80
2019-05-22T01:03:43.372Z,62.70
2019-05-22T01:06:13.271Z,62.90
2019-05-22T01:08:44.543Z,62.70
2019-05-22T01:11:15.389Z,62.70
2019-05-22T01:13:47.161Z,62.70
2019-05-22T01:16:17.607Z,62.60
2019-05-22T01:18:47.481Z,62.60
2019-05-22T01:21:24.358Z,62.80
2019-05-22T01:23:56.177Z,62.70
2019-05-22T01:26:25.966Z,62.70
2019-05-22T01:28:56.453Z,62.30
2019-05-22T01:31:37.429Z,62.50
2019-05-22T01:34:15.796Z,62.30
2019-05-22T01:36:47.918Z,62.40
2019-05-22T01:39:45.724Z,62.60
2019-05-22T01:42:21.792Z,63.20
2019-05-22T01:45:03.196Z,62.60
2019-05-22T01:47:44.511Z,62.60
2019-05-22T01:50:38.366Z,62.70
2019-05-22T01:53:08.786Z,62.60
2019-05-22T01:55:39.045Z,62.40
2019-05-22T01:58:10.676Z,62.40
2019-05-22T02:00:41.680Z,62.60
2019-05-22T02:03:11.970Z,62.70
2019-05-22T02:05:42.559Z,62.80
2019-05-22T02:08:12.856Z,62.80
2019-05-22T02:10:44.436Z,62.80
2019-05-22T02:13:17.280Z,62.70
2019-05-22T02:15:49.526Z,62.50
2019-05-22T02:18:22.961Z,62.70
2019-05-22T02:20:52.556Z,62.50
2019-05-22T02:23:23.372Z,62.70
2019-05-22T02:25:55.468Z,62.70
2019-05-22T02:28:25.711Z,62.70
2019-05-22T02:30:56.324Z,62.50
2019-05-22T02:33:26.949Z,62.40
2019-05-22T02:35:56.710Z,62.40
2019-05-22T02:38:28.846Z,62.50
2019-05-22T02:40:59.788Z,62.50
2019-05-22T02:43:30.877Z,62.50
2019-05-22T02:46:00.844Z,62.60
2019-05-22T02:48:31.577Z,62.50
2019-05-22T02:51:02.301Z,62.60
2019-05-22T02:53:31.552Z,62.70
2019-05-22T02:56:00.815Z,62.60
2019-05-22T02:58:31.703Z,62.60
2019-05-22T03:01:05.013Z,62.50
2019-05-22T03:03:36.817Z,62.60
2019-05-22T03:06:12.651Z,62.60
2019-05-22T03:09:15.978Z,62.70
2019-05-22T03:11:52.818Z,62.80
2019-05-22T03:14:23.238Z,62.80
2019-05-22T03:16:56.355Z,62.60
2019-05-22T03:19:39.064Z,62.90
2019-05-22T03:22:23.461Z,62.80
2019-05-22T03:24:57.172Z,62.80
2019-05-22T03:27:43.262Z,62.80
2019-05-22T03:30:36.762Z,63.00
2019-05-22T03:33:34.374Z,62.70
2019-05-22T03:35:50.808Z,62.70
2019-05-22T03:38:23.357Z,62.60
2019-05-22T03:40:57.830Z,62.60
2019-05-22T03:43:32.224Z,62.60
2019-05-22T03:46:08.304Z,62.60
2019-05-22T03:48:40.261Z,62.60
2019-05-22T03:51:17.622Z,62.90
2019-05-22T03:53:52.190Z,62.90
2019-05-22T03:56:27.206Z,62.90
2019-05-22T03:58:58.467Z,62.70
2019-05-22T04:01:29.390Z,62.80
2019-05-22T04:03:59.669Z,62.70
2019-05-22T04:06:29.986Z,62.70
2019-05-22T04:09:02.871Z,62.70
2019-05-22T04:11:35.884Z,62.90
2019-05-22T04:14:05.948Z,62.90
2019-05-22T04:16:36.221Z,62.70
2019-05-22T04:19:07.998Z,62.60
2019-05-22T04:21:37.722Z,62.70
2019-05-22T04:24:07.530Z,62.70
2019-05-22T04:26:37.571Z,62.60
2019-05-22T04:29:08.201Z,62.50
2019-05-22T04:31:48.842Z,62.50
2019-05-22T04:34:19.791Z,62.60
2019-05-22T04:36:51.448Z,62.80
2019-05-22T04:39:24.325Z,62.60
2019-05-22T04:41:55.834Z,62.50
2019-05-22T04:44:26.494Z,62.70
2019-05-22T04:46:57.045Z,62.70
2019-05-22T04:49:26.644Z,62.70
2019-05-22T04:51:56.354Z,62.60
2019-05-22T04:54:25.586Z,62.80
2019-05-22T04:56:55.914Z,62.80
2019-05-22T04:59:26.490Z,62.60
2019-05-22T05:01:56.560Z,62.60
2019-05-22T05:04:30.512Z,62.90
2019-05-22T05:06:59.753Z,62.80
2019-05-22T05:09:30.406Z,62.60
2019-05-22T05:12:00.329Z,62.70
2019-05-22T05:14:29.498Z,62.80
2019-05-22T05:16:59.034Z,62.50
2019-05-22T05:19:28.560Z,62.70
2019-05-22T05:21:57.917Z,62.60
2019-05-22T05:24:30.968Z,62.50
2019-05-22T05:27:02.334Z,62.80
2019-05-22T05:29:33.819Z,62.70
2019-05-22T05:32:03.473Z,62.80
2019-05-22T05:35:00.593Z,62.90
2019-05-22T05:37:32.767Z,62.90
2019-05-22T05:40:30.034Z,63.90
2019-05-22T05:43:01.745Z,62.70
2019-05-22T05:45:33.921Z,63.50
2019-05-22T05:48:07.380Z,63.60
2019-05-22T05:50:40.308Z,63.60
2019-05-22T05:53:18.783Z,63.70
2019-05-22T05:56:16.648Z,63.30
2019-05-22T05:58:47.666Z,63.70
2019-05-22T06:01:32.559Z,63.10
2019-05-22T06:04:03.958Z,63.60
2019-05-22T06:07:12.581Z,63.10
2019-05-22T06:09:42.113Z,62.50
2019-05-22T06:12:13.796Z,62.60
2019-05-22T06:14:43.269Z,62.10
2019-05-22T06:17:57.846Z,61.30
2019-05-22T06:20:28.489Z,60.30
2019-05-22T06:23:44.855Z,60.90
2019-05-22T06:26:53.214Z,60.70
2019-05-22T06:29:28.665Z,60.00
2019-05-22T06:32:55.636Z,59.60
2019-05-22T06:35:26.720Z,58.40
2019-05-22T06:38:24.684Z,57.90
2019-05-22T06:40:54.430Z,57.70
2019-05-22T06:44:18.974Z,57.00
2019-05-22T06:46:51.558Z,56.90
2019-05-22T06:49:41.921Z,57.00
2019-05-22T06:52:11.773Z,57.00
2019-05-22T06:54:41.401Z,57.10
2019-05-22T06:57:15.183Z,56.90
2019-05-22T06:59:47.845Z,56.80
2019-05-22T07:02:21.319Z,56.40
2019-05-22T07:04:51.275Z,56.20
2019-05-22T07:07:26.633Z,56.50
2019-05-22T07:58:41.479Z,57.10
2019-05-22T08:01:36.256Z,56.00
2019-05-22T08:04:30.783Z,56.30
2019-05-22T08:07:00.780Z,56.50
2019-05-22T08:09:30.027Z,56.50
2019-05-22T08:12:00.087Z,56.30
2019-05-22T08:14:29.628Z,55.80
2019-05-22T08:16:58.801Z,56.20
2019-05-22T08:19:28.233Z,56.00
2019-05-22T08:22:07.221Z,56.10
2019-05-22T08:24:32.229Z,56.20
2019-05-22T08:27:03.473Z,56.40
2019-05-22T08:29:33.630Z,56.10
2019-05-22T08:32:05.037Z,56.10
2019-05-22T08:34:35.487Z,55.90
2019-05-22T08:37:08.725Z,55.80
2019-05-22T08:39:40.923Z,55.70
2019-05-22T08:42:13.166Z,55.80
2019-05-22T08:44:42.608Z,55.80
2019-05-22T08:47:13.203Z,55.70
2019-05-22T08:49:42.716Z,56.20
2019-05-22T08:52:23.006Z,56.10
2019-05-22T08:54:49.056Z,55.70
2019-05-22T08:57:22.769Z,56.10
2019-05-22T08:59:52.355Z,56.10
2019-05-22T09:02:22.477Z,56.10
2019-05-22T09:04:51.698Z,56.00
2019-05-22T09:07:21.070Z,56.00
2019-05-22T09:09:50.340Z,55.30
2019-05-22T09:12:20.660Z,55.00
2019-05-22T09:14:50.093Z,54.70
2019-05-22T09:17:20.519Z,54.30
2019-05-22T09:19:50.531Z,55.40
2019-05-22T09:22:19.860Z,54.70
2019-05-22T09:24:50.741Z,54.70
2019-05-22T09:27:20.055Z,54.00
2019-05-22T09:29:49.379Z,53.10
2019-05-22T09:32:19.808Z,53.60
2019-05-22T09:34:49.932Z,53.50
2019-05-22T09:37:19.316Z,51.70
2019-05-22T09:39:48.514Z,51.90
2019-05-22T09:42:18.789Z,52.30
2019-05-22T09:44:47.988Z,51.50
2019-05-22T09:47:19.003Z,52.70
2019-05-22T09:49:48.414Z,51.90
2019-05-22T09:52:18.258Z,51.00
2019-05-22T09:54:47.554Z,52.10
2019-05-22T09:57:17.440Z,50.30
2019-05-22T09:59:46.620Z,50.70
2019-05-22T10:02:18.392Z,50.00
2019-05-22T10:04:47.758Z,49.60
2019-05-22T10:07:17.586Z,51.00
2019-05-22T10:09:51.160Z,50.00
2019-05-22T10:12:21.088Z,50.70
2019-05-22T10:14:50.530Z,49.50
2019-05-22T10:17:20.855Z,49.40
2019-05-22T10:19:51.255Z,49.90
2019-05-22T10:22:21.094Z,48.10
2019-05-22T10:24:51.955Z,48.80
2019-05-22T10:27:21.915Z,47.50
2019-05-22T10:29:52.561Z,47.40
2019-05-22T10:32:21.733Z,47.20
2019-05-22T10:34:50.991Z,46.50
2019-05-22T10:37:20.266Z,47.10
2019-05-22T10:39:52.879Z,45.90
2019-05-22T10:42:21.969Z,46.60
2019-05-22T10:44:51.120Z,45.10
2019-05-22T10:47:20.547Z,44.50
2019-05-22T10:49:49.750Z,45.30
2019-05-22T10:52:19.030Z,44.10
2019-05-22T10:54:48.265Z,45.40
2019-05-22T10:57:18.860Z,42.90
2019-05-22T10:59:48.061Z,43.40
2019-05-22T11:02:17.860Z,44.70
2019-05-22T11:04:47.139Z,43.30
2019-05-22T11:07:18.055Z,43.30
2019-05-22T11:09:47.397Z,43.30
2019-05-22T11:12:16.629Z,42.60
2019-05-22T11:14:49.859Z,42.80
2019-05-22T11:17:19.225Z,42.00
2019-05-22T11:19:48.419Z,41.70
2019-05-22T11:22:19.573Z,42.00
2019-05-22T11:24:48.798Z,42.10
2019-05-22T11:27:21.593Z,42.90
2019-05-22T11:29:51.626Z,41.30
2019-05-22T11:32:22.165Z,41.10
2019-05-22T11:34:51.403Z,41.60
2019-05-22T11:37:21.534Z,41.50
2019-05-22T11:39:50.814Z,41.00
2019-05-22T11:42:20.238Z,41.90
2019-05-22T11:44:51.495Z,40.90
2019-05-22T11:47:21.768Z,41.60
2019-05-22T11:49:51.023Z,41.50
2019-05-22T11:52:20.927Z,40.90
2019-05-22T11:54:50.289Z,40.30
2019-05-22T11:57:19.655Z,39.70
2019-05-22T11:59:49.113Z,40.10
2019-05-22T12:02:19.543Z,39.40
2019-05-22T12:04:49.735Z,41.90
2019-05-22T12:07:20.459Z,39.80
2019-05-22T12:09:50.089Z,40.60
2019-05-22T12:12:19.989Z,41.80
2019-05-22T12:14:49.237Z,42.00
2019-05-22T12:17:34.783Z,41.70
2019-05-22T12:19:49.435Z,42.00
2019-05-22T12:22:19.976Z,40.30
2019-05-22T12:24:49.677Z,42.10
2019-05-22T12:27:19.809Z,41.30
2019-05-22T12:29:54.354Z,40.70
2019-05-22T12:36:01.279Z,41.20
2019-05-22T12:38:34.170Z,40.90
2019-05-22T12:41:04.917Z,41.20
2019-05-22T12:43:35.662Z,39.90
2019-05-22T12:46:07.164Z,41.30
2019-05-22T12:48:41.533Z,40.50
2019-05-22T12:51:15.180Z,41.50
2019-05-22T12:53:54.100Z,41.60
2019-05-22T12:56:24.400Z,41.40
2019-05-22T12:58:57.581Z,39.90
2019-05-22T13:01:29.368Z,39.30
2019-05-22T13:04:42.100Z,41.50
2019-05-22T13:07:40.805Z,41.10
2019-05-22T13:14:38.861Z,40.00
2019-05-22T13:26:27.024Z,39.80
2019-05-22T13:33:30.683Z,39.60
2019-05-22T13:36:43.817Z,39.90
2019-05-22T13:42:41.489Z,39.10
2019-05-22T13:52:46.685Z,38.90
2019-05-22T13:59:26.778Z,39.00
2019-05-22T14:27:27.812Z,37.70
2019-05-22T14:33:54.486Z,38.70
2019-05-22T14:41:28.715Z,35.60
2019-05-22T14:59:42.396Z,34.60
2019-05-22T15:06:15.427Z,35.50
2019-05-22T15:09:09.986Z,35.30
2019-05-22T15:11:41.926Z,36.30
2019-05-22T15:14:11.727Z,35.40
2019-05-22T15:16:41.029Z,36.10
2019-05-22T15:19:10.764Z,36.30
2019-05-22T15:21:40.115Z,36.00
2019-05-22T15:24:09.360Z,35.40
2019-05-22T15:26:38.805Z,35.50
2019-05-22T15:29:08.543Z,37.00
2019-05-22T15:31:38.181Z,37.70
2019-05-22T15:34:13.200Z,36.20
2019-05-22T15:36:42.123Z,35.00
2019-05-22T15:39:15.437Z,34.40
2019-05-22T15:41:44.899Z,36.10
2019-05-22T15:44:14.528Z,35.80
2019-05-22T15:46:47.993Z,36.10
2019-05-22T15:49:19.537Z,36.50
2019-05-22T15:51:52.555Z,36.60
2019-05-22T15:54:22.973Z,36.50
2019-05-22T15:56:54.726Z,37.10
2019-05-22T15:59:24.446Z,37.30
2019-05-22T16:01:55.166Z,37.50
2019-05-22T16:04:25.083Z,38.00
2019-05-22T16:06:55.000Z,37.10
2019-05-22T16:09:27.401Z,37.40
2019-05-22T16:11:56.632Z,36.20
2019-05-22T16:14:29.686Z,36.80
2019-05-22T16:17:01.445Z,36.60
2019-05-22T16:19:32.750Z,37.50
2019-05-22T16:22:06.809Z,37.10
2019-05-22T16:24:39.071Z,37.30
2019-05-22T16:27:10.729Z,37.20
2019-05-22T16:29:40.564Z,37.40
2019-05-22T16:32:12.084Z,38.00
2019-05-22T16:34:42.589Z,38.50
2019-05-22T16:37:11.750Z,38.30
2019-05-22T16:39:41.911Z,38.50
2019-05-22T16:42:11.843Z,39.60
2019-05-22T16:44:42.540Z,38.20
2019-05-22T16:47:11.897Z,39.40
2019-05-22T16:49:41.066Z,38.80
2019-05-22T16:52:13.308Z,38.30
2019-05-22T16:54:45.681Z,39.00
2019-05-22T16:57:15.439Z,39.60
2019-05-22T16:59:45.976Z,39.80
2019-05-22T17:02:16.952Z,39.60
2019-05-22T17:04:48.875Z,39.40
2019-05-22T17:07:19.687Z,38.90
2019-05-22T17:09:51.323Z,39.20
2019-05-22T17:12:23.327Z,39.30
2019-05-22T17:14:53.600Z,39.70
2019-05-22T17:17:22.909Z,40.40
2019-05-22T17:19:52.727Z,39.70
2019-05-22T17:22:22.555Z,39.80
2019-05-22T17:24:51.935Z,40.40
2019-05-22T17:27:22.789Z,39.70
2019-05-22T17:29:52.688Z,40.10
2019-05-22T17:32:23.515Z,39.60
2019-05-22T17:34:54.050Z,40.50
2019-05-22T17:37:25.602Z,39.90
2019-05-22T17:39:54.987Z,39.90
2019-05-22T17:42:29.538Z,40.40
2019-05-22T17:45:00.336Z,40.20
2019-05-22T17:47:31.572Z,40.60
2019-05-22T17:50:01.980Z,41.70
2019-05-22T17:52:33.062Z,40.60
2019-05-22T17:55:02.442Z,40.50
2019-05-22T17:57:33.230Z,40.90
2019-05-22T18:00:04.222Z,41.10
2019-05-22T18:02:35.566Z,41.40
2019-05-22T18:05:07.481Z,41.50
2019-05-22T18:07:38.622Z,41.90
2019-05-22T18:10:08.723Z,41.00
2019-05-22T18:12:38.034Z,41.60
2019-05-22T18:15:10.065Z,42.20
2019-05-22T18:17:39.867Z,42.00
2019-05-22T18:20:11.343Z,42.50
2019-05-22T18:22:41.312Z,41.90
2019-05-22T18:25:12.024Z,42.50
2019-05-22T18:27:41.174Z,42.60
2019-05-22T18:30:12.161Z,42.10
2019-05-22T18:32:43.109Z,42.20
2019-05-22T18:35:14.428Z,42.20
2019-05-22T18:37:43.724Z,42.40
2019-05-22T18:40:15.228Z,41.80
2019-05-22T18:42:44.423Z,42.20
2019-05-22T18:45:16.299Z,42.60
2019-05-22T18:47:45.530Z,41.70
2019-05-22T18:50:16.647Z,41.30
2019-05-22T18:52:49.372Z,41.90
2019-05-22T18:55:19.623Z,42.80
2019-05-22T18:57:49.624Z,43.10
2019-05-22T19:00:22.435Z,41.80
2019-05-22T19:02:52.169Z,43.30
2019-05-22T19:05:25.397Z,42.00
2019-05-22T19:07:55.727Z,42.40
2019-05-22T19:10:26.013Z,42.70
2019-05-22T19:12:55.203Z,42.20
2019-05-22T19:15:24.841Z,43.30
2019-05-22T19:17:55.214Z,43.40
2019-05-22T19:20:24.541Z,42.70
2019-05-22T19:23:00.705Z,43.10
2019-05-22T19:25:26.664Z,42.50
2019-05-22T19:28:02.145Z,42.30
2019-05-22T19:30:31.967Z,41.40
2019-05-22T19:33:01.162Z,41.60
2019-05-22T19:35:30.641Z,41.80
2019-05-22T19:38:00.830Z,41.80
2019-05-22T19:40:30.064Z,42.20
2019-05-22T19:42:59.502Z,42.20
2019-05-22T19:45:31.147Z,42.40
2019-05-22T19:48:00.026Z,42.50
2019-05-22T19:50:31.209Z,42.80
2019-05-22T19:53:17.507Z,42.70
2019-05-22T19:55:32.473Z,43.20
2019-05-22T19:58:01.956Z,43.00
2019-05-22T20:00:31.695Z,43.10
2019-05-22T20:03:02.015Z,43.00
2019-05-22T20:05:33.463Z,42.90
2019-05-22T20:08:03.870Z,43.10
2019-05-22T20:10:33.162Z,43.30
2019-05-22T20:13:02.907Z,43.20
2019-05-22T20:15:32.804Z,43.40
2019-05-22T20:18:03.229Z,43.60
2019-05-22T20:20:32.965Z,43.40
2019-05-22T20:23:03.390Z,43.70
2019-05-22T20:25:34.072Z,43.60
2019-05-22T20:28:03.586Z,43.70
2019-05-22T20:30:32.968Z,43.80
2019-05-22T20:33:02.382Z,43.80
2019-05-22T20:35:33.161Z,43.80
2019-05-22T20:38:02.640Z,43.90
2019-05-22T20:40:32.418Z,44.10
2019-05-22T20:43:02.148Z,44.10
2019-05-22T20:45:32.494Z,44.00
2019-05-22T20:48:11.928Z,44.20
2019-05-22T20:50:43.122Z,44.40
2019-05-22T20:53:16.320Z,44.50
2019-05-22T20:55:47.785Z,44.40
2019-05-22T20:58:19.372Z,44.60
2019-05-22T21:00:51.435Z,44.20
2019-05-22T21:03:22.201Z,44.80
2019-05-22T21:05:52.915Z,44.80
2019-05-22T21:08:25.212Z,44.70
2019-05-22T21:10:56.182Z,45.00
2019-05-22T21:13:26.189Z,44.90
2019-05-22T21:15:55.940Z,44.70
2019-05-22T21:18:31.136Z,45.30
2019-05-22T21:21:00.814Z,45.60
2019-05-22T21:23:30.261Z,45.10
2019-05-22T21:25:59.528Z,44.80
2019-05-22T21:28:28.910Z,44.90
2019-05-22T21:30:59.048Z,44.80
2019-05-22T21:33:28.901Z,44.80
2019-05-22T21:35:58.116Z,44.90
2019-05-22T21:38:29.734Z,44.80
2019-05-22T21:40:59.448Z,44.70
2019-05-22T21:43:28.682Z,44.80
2019-05-22T21:45:58.893Z,44.80
2019-05-22T21:48:29.042Z,44.90
2019-05-22T21:50:58.790Z,45.20
2019-05-22T21:53:29.518Z,44.80
2019-05-22T21:56:05.289Z,45.10
2019-05-22T21:58:30.734Z,45.30
2019-05-22T22:01:19.306Z,45.10
2019-05-22T22:03:53.309Z,45.10
2019-05-22T22:06:22.512Z,45.40
2019-05-22T22:08:52.182Z,45.50
2019-05-22T22:11:25.181Z,45.60
2019-05-22T22:13:54.652Z,45.50
2019-05-22T22:16:24.909Z,45.50
2019-05-22T22:18:55.005Z,45.70
2019-05-22T22:21:24.320Z,46.00
2019-05-22T22:23:53.802Z,45.70
2019-05-22T22:26:25.873Z,45.80
2019-05-22T22:28:55.530Z,46.00
2019-05-22T22:31:26.938Z,46.00
2019-05-22T22:34:03.469Z,46.20
2019-05-22T22:36:33.892Z,46.00
2019-05-22T22:39:03.627Z,46.00
2019-05-22T22:41:32.803Z,46.10
2019-05-22T22:44:05.645Z,46.20
2019-05-22T22:46:39.874Z,46.30
2019-05-22T22:49:15.295Z,46.40
2019-05-22T22:51:45.691Z,46.50
2019-05-22T22:54:16.028Z,46.50
2019-05-22T22:56:45.465Z,46.70
2019-05-22T22:59:15.828Z,46.80
2019-05-22T23:01:50.247Z,46.90
2019-05-22T23:04:22.401Z,46.80
2019-05-22T23:06:52.595Z,47.00
2019-05-22T23:09:23.135Z,47.00
2019-05-22T23:11:53.929Z,47.00
2019-05-22T23:14:24.336Z,46.70
2019-05-22T23:16:56.041Z,46.80
2019-05-22T23:19:34.009Z,46.90
2019-05-22T23:22:03.891Z,46.70
2019-05-22T23:24:37.551Z,46.90
2019-05-22T23:27:08.618Z,46.70
2019-05-22T23:29:41.002Z,46.70
2019-05-22T23:32:11.953Z,46.70
2019-05-22T23:34:43.582Z,46.70
2019-05-22T23:37:14.927Z,46.60
2019-05-22T23:39:47.561Z,46.70
2019-05-22T23:42:24.490Z,46.80
2019-05-22T23:44:57.004Z,47.20
2019-05-22T23:47:27.868Z,46.50
2019-05-22T23:49:57.219Z,46.60
2019-05-22T23:52:26.574Z,46.30
2019-05-22T23:54:55.932Z,46.50
2019-05-22T23:57:27.263Z,46.30
2019-05-22T23:59:58.644Z,46.10
